createdAt,value
2022-08-03T00:00:32.277Z,19.31
2022-08-03T00:03:00.232Z,19.27
2022-08-03T00:05:28.159Z,19.30
2022-08-03T00:07:57.376Z,19.18
2022-08-03T00:10:25.235Z,19.15
2022-08-03T00:12:53.220Z,19.18
2022-08-03T00:15:21.275Z,19.15
2022-08-03T00:17:53.743Z,19.17
2022-08-03T00:20:22.138Z,19.10
2022-08-03T00:22:50.478Z,19.06
2022-08-03T00:25:19.724Z,18.99
2022-08-03T00:27:48.320Z,19.02
2022-08-03T00:30:16.902Z,18.99
2022-08-03T00:32:45.617Z,19.02
2022-08-03T00:35:29.362Z,19.02
2022-08-03T00:38:01.947Z,18.98
2022-08-03T00:40:31.217Z,18.96
2022-08-03T00:43:00.704Z,18.93
2022-08-03T00:45:30.137Z,18.92
2022-08-03T00:47:58.612Z,18.91
2022-08-03T00:50:28.587Z,18.90
2022-08-03T00:52:59.837Z,18.85
2022-08-03T00:55:28.093Z,18.79
2022-08-03T00:57:57.764Z,18.76
2022-08-03T01:00:27.661Z,18.74
2022-08-03T01:02:55.876Z,18.73
2022-08-03T01:05:24.155Z,18.74
2022-08-03T01:08:04.353Z,18.69
2022-08-03T01:10:40.821Z,18.68
2022-08-03T01:14:04.124Z,18.67
2022-08-03T01:16:16.099Z,18.62
2022-08-03T01:18:49.978Z,18.59
2022-08-03T01:21:27.764Z,18.57
2022-08-03T01:24:05.278Z,18.54
2022-08-03T01:26:52.892Z,18.52
2022-08-03T01:29:53.698Z,18.50
2022-08-03T01:32:58.714Z,18.49
2022-08-03T01:35:16.751Z,18.50
2022-08-03T01:37:51.233Z,18.42
2022-08-03T01:40:21.977Z,18.41
2022-08-03T01:42:51.827Z,18.38
2022-08-03T01:45:23.429Z,18.35
2022-08-03T01:47:52.636Z,18.34
2022-08-03T01:50:25.515Z,18.25
2022-08-03T01:52:55.740Z,18.26
2022-08-03T01:55:27.338Z,18.27
2022-08-03T01:58:04.683Z,18.21
2022-08-03T02:00:38.088Z,18.20
2022-08-03T02:03:07.753Z,18.13
2022-08-03T02:05:36.987Z,18.17
2022-08-03T02:08:06.551Z,18.21
2022-08-03T02:10:37.217Z,18.20
2022-08-03T02:13:07.815Z,18.22
2022-08-03T02:15:38.199Z,18.14
2022-08-03T02:18:08.621Z,18.15
2022-08-03T02:20:38.936Z,18.18
2022-08-03T02:23:07.518Z,18.13
2022-08-03T02:25:38.810Z,18.03
2022-08-03T02:28:09.917Z,18.04
2022-08-03T02:30:42.055Z,18.01
2022-08-03T02:33:19.564Z,18.03
2022-08-03T02:35:49.679Z,18.02
2022-08-03T02:38:22.236Z,18.01
2022-08-03T02:40:52.546Z,17.93
2022-08-03T02:43:24.176Z,17.90
2022-08-03T02:45:54.627Z,17.89
2022-08-03T02:48:26.393Z,17.84
2022-08-03T02:50:56.115Z,17.79
2022-08-03T02:53:26.012Z,17.81
2022-08-03T02:55:56.463Z,17.86
2022-08-03T02:58:25.768Z,17.80
2022-08-03T03:00:56.237Z,17.81
2022-08-03T03:03:25.624Z,17.75
2022-08-03T03:05:57.803Z,17.81
2022-08-03T03:08:29.217Z,17.82
2022-08-03T03:10:59.279Z,17.82
2022-08-03T03:13:29.274Z,17.71
2022-08-03T03:16:02.256Z,17.69
2022-08-03T03:18:33.372Z,17.72
2022-08-03T03:21:03.773Z,17.70
2022-08-03T03:23:33.003Z,17.74
2022-08-03T03:26:02.378Z,17.68
2022-08-03T03:28:31.528Z,17.65
2022-08-03T03:31:01.766Z,17.60
2022-08-03T03:33:29.667Z,17.60
2022-08-03T03:35:59.560Z,17.61
2022-08-03T03:38:28.084Z,17.58
2022-08-03T03:40:56.757Z,17.55
2022-08-03T03:43:25.777Z,17.60
2022-08-03T03:45:54.202Z,17.59
2022-08-03T03:48:23.523Z,17.53
2022-08-03T03:50:51.645Z,17.56
2022-08-03T03:53:19.771Z,17.56
2022-08-03T03:55:59.238Z,17.52
2022-08-03T03:58:32.257Z,17.51
2022-08-03T04:01:00.472Z,17.53
2022-08-03T04:03:29.784Z,17.47
2022-08-03T04:06:16.124Z,17.45
2022-08-03T04:09:13.384Z,17.47
2022-08-03T04:11:44.719Z,17.45
2022-08-03T04:14:15.954Z,17.41
2022-08-03T04:16:48.234Z,17.36
2022-08-03T04:19:23.291Z,17.38
2022-08-03T04:21:56.901Z,17.38
2022-08-03T04:24:28.122Z,17.41
2022-08-03T04:26:57.259Z,17.44
2022-08-03T04:29:27.807Z,17.43
2022-08-03T04:31:57.713Z,17.41
2022-08-03T04:34:27.062Z,17.41
2022-08-03T04:37:00.104Z,17.41
2022-08-03T04:39:31.023Z,17.44
2022-08-03T04:42:08.149Z,17.46
2022-08-03T04:44:39.042Z,17.47
2022-08-03T04:47:07.273Z,17.52
2022-08-03T04:49:38.624Z,17.53
2022-08-03T04:52:09.969Z,17.56
2022-08-03T04:54:41.988Z,17.58
2022-08-03T04:57:09.931Z,17.63
2022-08-03T04:59:54.671Z,17.61
2022-08-03T05:02:26.067Z,17.57
2022-08-03T05:04:55.369Z,17.63
2022-08-03T05:07:24.761Z,17.60
2022-08-03T05:09:53.686Z,17.65
2022-08-03T05:12:32.752Z,17.69
2022-08-03T05:15:01.253Z,17.66
2022-08-03T05:17:29.676Z,17.71
2022-08-03T05:19:58.993Z,17.80
2022-08-03T05:22:26.898Z,17.86
2022-08-03T05:24:54.795Z,17.94
2022-08-03T05:27:22.725Z,18.05
2022-08-03T05:29:51.499Z,18.10
2022-08-03T05:32:19.930Z,18.15
2022-08-03T05:34:47.935Z,18.15
2022-08-03T05:37:17.205Z,18.22
2022-08-03T05:39:45.047Z,18.30
2022-08-03T05:42:12.939Z,18.37
2022-08-03T05:44:42.083Z,18.41
2022-08-03T05:47:09.999Z,18.44
2022-08-03T05:49:37.903Z,18.54
2022-08-03T05:52:12.951Z,18.62
2022-08-03T05:54:56.764Z,18.69
2022-08-03T05:57:25.631Z,18.76
2022-08-03T05:59:57.731Z,18.81
2022-08-03T06:02:26.737Z,18.92
2022-08-03T06:04:54.665Z,18.99
2022-08-03T06:07:22.780Z,19.07
2022-08-03T06:10:35.079Z,19.16
2022-08-03T06:12:41.335Z,19.27
2022-08-03T06:15:11.561Z,19.33
2022-08-03T06:17:46.824Z,19.41
2022-08-03T06:20:14.757Z,19.51
2022-08-03T06:22:50.745Z,19.59
2022-08-03T06:25:21.461Z,19.68
2022-08-03T06:27:49.416Z,19.81
2022-08-03T06:30:21.333Z,19.91
2022-08-03T06:32:52.135Z,20.01
2022-08-03T06:35:20.581Z,20.11
2022-08-03T06:37:50.169Z,20.18
2022-08-03T06:40:21.869Z,20.30
2022-08-03T06:42:52.562Z,20.38
2022-08-03T06:45:20.637Z,20.47
2022-08-03T06:47:49.007Z,20.55
2022-08-03T06:50:19.032Z,20.66
2022-08-03T06:52:48.583Z,20.76
2022-08-03T06:55:16.659Z,20.87
2022-08-03T06:57:45.919Z,20.97
2022-08-03T07:00:14.825Z,21.09
2022-08-03T07:02:43.123Z,21.16
2022-08-03T07:05:12.449Z,21.39
2022-08-03T07:07:41.062Z,21.48
2022-08-03T07:10:10.114Z,21.64
2022-08-03T07:12:55.855Z,21.81
2022-08-03T07:15:54.413Z,21.92
2022-08-03T07:18:14.201Z,22.02
2022-08-03T07:20:42.242Z,22.01
2022-08-03T07:23:16.079Z,22.06
2022-08-03T07:25:47.260Z,22.33
2022-08-03T07:28:15.536Z,22.47
2022-08-03T07:30:44.855Z,22.55
2022-08-03T07:33:12.700Z,22.72
2022-08-03T07:35:40.830Z,22.73
2022-08-03T07:38:08.713Z,22.76
2022-08-03T07:40:36.782Z,22.88
2022-08-03T07:43:05.044Z,22.98
2022-08-03T07:45:33.157Z,22.97
2022-08-03T07:48:02.543Z,23.13
2022-08-03T07:50:30.482Z,23.41
2022-08-03T07:52:59.766Z,23.46
2022-08-03T07:55:28.652Z,23.58
2022-08-03T07:58:04.956Z,23.69
2022-08-03T08:00:33.003Z,23.90
2022-08-03T08:03:02.757Z,23.83
2022-08-03T08:05:30.649Z,23.94
2022-08-03T08:07:58.645Z,24.01
2022-08-03T08:10:26.691Z,23.96
2022-08-03T08:12:54.751Z,24.11
2022-08-03T08:15:22.787Z,24.22
2022-08-03T08:17:53.497Z,24.31
2022-08-03T08:20:27.943Z,24.32
2022-08-03T08:22:58.264Z,24.31
2022-08-03T08:25:29.491Z,24.37
2022-08-03T08:28:30.573Z,24.43
2022-08-03T08:30:46.049Z,24.66
2022-08-03T08:33:23.286Z,24.70
2022-08-03T08:35:54.432Z,24.76
2022-08-03T08:38:22.862Z,24.76
2022-08-03T08:40:51.040Z,24.88
2022-08-03T08:43:18.991Z,24.93
2022-08-03T08:45:50.128Z,25.00
2022-08-03T08:48:23.471Z,25.08
2022-08-03T08:50:56.630Z,25.21
2022-08-03T08:53:27.916Z,25.12
2022-08-03T08:56:00.692Z,25.22
2022-08-03T08:58:32.608Z,25.21
2022-08-03T09:01:00.854Z,25.31
2022-08-03T09:03:29.966Z,25.36
2022-08-03T09:06:02.264Z,25.51
2022-08-03T09:08:31.261Z,25.42
2022-08-03T09:10:59.433Z,25.58
2022-08-03T09:13:27.583Z,25.60
2022-08-03T09:16:16.964Z,25.71
2022-08-03T09:18:46.459Z,25.67
2022-08-03T09:21:34.275Z,25.85
2022-08-03T09:24:06.231Z,25.85
2022-08-03T09:26:37.879Z,25.79
2022-08-03T09:29:13.934Z,25.94
2022-08-03T09:31:44.701Z,26.05
2022-08-03T09:34:14.303Z,26.01
2022-08-03T09:36:45.857Z,26.05
2022-08-03T09:39:16.207Z,26.25
2022-08-03T09:41:45.737Z,26.18
2022-08-03T09:44:16.158Z,26.17
2022-08-03T09:46:55.680Z,26.29
2022-08-03T09:49:24.368Z,26.35
2022-08-03T09:52:31.494Z,26.44
2022-08-03T09:54:43.080Z,26.43
2022-08-03T09:57:22.974Z,26.48
2022-08-03T09:59:53.887Z,26.50
2022-08-03T10:02:41.700Z,26.51
2022-08-03T10:05:19.450Z,26.44
2022-08-03T10:07:50.765Z,26.45
2022-08-03T10:10:31.110Z,26.54
2022-08-03T10:13:01.201Z,26.64
2022-08-03T10:16:21.201Z,26.72
2022-08-03T10:18:17.632Z,26.82
2022-08-03T10:20:50.413Z,26.86
2022-08-03T10:23:21.528Z,26.87
2022-08-03T10:25:53.769Z,26.92
2022-08-03T10:28:23.239Z,27.06
2022-08-03T10:30:52.684Z,27.04
2022-08-03T10:33:51.329Z,27.13
2022-08-03T10:36:14.327Z,27.20
2022-08-03T10:38:52.413Z,27.22
2022-08-03T10:41:21.668Z,27.26
2022-08-03T10:43:54.015Z,27.16
2022-08-03T10:46:22.527Z,27.10
2022-08-03T10:48:52.755Z,27.14
2022-08-03T10:51:22.049Z,27.19
2022-08-03T10:53:54.546Z,27.37
2022-08-03T10:57:12.396Z,27.51
2022-08-03T11:00:05.117Z,27.49
2022-08-03T11:03:08.584Z,27.40
2022-08-03T11:05:42.017Z,27.41
2022-08-03T11:08:20.598Z,27.40
2022-08-03T11:10:51.053Z,27.58
2022-08-03T11:13:21.356Z,27.57
2022-08-03T11:15:52.882Z,27.69
2022-08-03T11:18:28.333Z,27.55
2022-08-03T11:20:58.244Z,27.64
2022-08-03T11:24:03.940Z,27.82
2022-08-03T11:26:34.166Z,27.64
2022-08-03T11:29:28.254Z,27.71
2022-08-03T11:31:56.180Z,27.62
2022-08-03T11:34:24.643Z,27.90
2022-08-03T11:37:28.723Z,27.84
2022-08-03T11:39:58.049Z,27.98
2022-08-03T11:42:45.666Z,28.18
2022-08-03T11:45:14.961Z,28.03
2022-08-03T11:47:50.169Z,28.22
2022-08-03T11:50:20.150Z,28.11
2022-08-03T11:52:48.956Z,28.19
2022-08-03T11:55:20.446Z,28.30
2022-08-03T11:59:17.091Z,28.26
2022-08-03T12:00:38.295Z,28.34
2022-08-03T12:03:08.738Z,28.35
2022-08-03T12:05:42.213Z,28.40
2022-08-03T12:08:33.139Z,28.33
2022-08-03T12:11:03.062Z,28.30
2022-08-03T12:14:33.069Z,28.25
2022-08-03T12:16:29.697Z,28.28
2022-08-03T12:18:58.714Z,28.25
2022-08-03T12:21:26.698Z,28.25
2022-08-03T12:23:59.028Z,28.24
2022-08-03T12:26:27.616Z,28.43
2022-08-03T12:28:57.322Z,28.33
2022-08-03T12:31:25.756Z,28.29
2022-08-03T12:33:59.460Z,28.35
2022-08-03T12:36:28.334Z,28.28
2022-08-03T12:38:57.812Z,28.33
2022-08-03T12:41:31.145Z,28.34
2022-08-03T12:44:00.666Z,28.31
2022-08-03T12:46:34.374Z,28.39
2022-08-03T12:49:06.600Z,28.42
2022-08-03T12:51:36.245Z,28.52
2022-08-03T12:54:05.967Z,28.58
2022-08-03T12:56:34.196Z,28.62
2022-08-03T12:59:32.494Z,28.67
2022-08-03T13:02:04.316Z,28.58
2022-08-03T13:04:34.557Z,28.62
2022-08-03T13:07:05.016Z,28.59
2022-08-03T13:09:43.165Z,28.60
2022-08-03T13:12:13.146Z,28.63
2022-08-03T13:14:43.165Z,28.74
2022-08-03T13:17:11.678Z,28.85
2022-08-03T13:19:40.624Z,28.77
2022-08-03T13:22:16.230Z,28.70
2022-08-03T13:24:45.469Z,28.65
2022-08-03T13:27:22.507Z,28.84
2022-08-03T13:30:03.994Z,28.86
2022-08-03T13:32:32.072Z,28.71
2022-08-03T13:35:00.164Z,28.88
2022-08-03T13:37:28.177Z,28.90
2022-08-03T13:40:02.218Z,28.90
2022-08-03T13:42:32.284Z,29.04
2022-08-03T13:45:01.056Z,29.16
2022-08-03T13:47:30.872Z,29.11
2022-08-03T13:50:00.932Z,29.13
2022-08-03T13:52:34.968Z,29.11
2022-08-03T13:55:03.667Z,29.16
2022-08-03T13:58:06.273Z,29.24
2022-08-03T14:00:27.044Z,29.25
2022-08-03T14:03:06.701Z,29.24
2022-08-03T14:05:38.694Z,29.25
2022-08-03T14:08:07.871Z,29.31
2022-08-03T14:10:38.698Z,29.37
2022-08-03T14:13:07.275Z,29.32
2022-08-03T14:15:37.936Z,29.27
2022-08-03T14:18:15.765Z,29.24
2022-08-03T14:20:57.954Z,29.49
2022-08-03T14:23:27.648Z,29.59
2022-08-03T14:25:55.592Z,29.59
2022-08-03T14:28:25.057Z,29.62
2022-08-03T14:30:53.942Z,29.52
2022-08-03T14:33:24.151Z,29.52
2022-08-03T14:35:52.888Z,29.56
2022-08-03T14:38:22.111Z,29.42
2022-08-03T14:40:50.312Z,29.51
2022-08-03T14:43:20.336Z,29.55
2022-08-03T14:45:52.126Z,29.56
2022-08-03T14:50:30.922Z,29.64
2022-08-03T14:51:10.240Z,29.69
2022-08-03T14:53:38.470Z,29.64
2022-08-03T14:56:10.502Z,29.71
2022-08-03T14:58:39.129Z,29.70
2022-08-03T15:02:02.634Z,29.66
2022-08-03T15:03:55.311Z,29.65
2022-08-03T15:06:25.554Z,29.65
2022-08-03T15:09:21.353Z,29.72
2022-08-03T15:11:42.469Z,29.66
2022-08-03T15:14:10.583Z,29.69
2022-08-03T15:16:41.839Z,29.78
2022-08-03T15:20:01.173Z,29.77
2022-08-03T15:22:01.016Z,29.83
2022-08-03T15:24:30.340Z,29.74
2022-08-03T15:26:58.554Z,29.67
2022-08-03T15:30:09.519Z,29.77
2022-08-03T15:32:15.253Z,29.75
2022-08-03T15:34:50.553Z,29.74
2022-08-03T15:37:21.062Z,29.72
2022-08-03T15:39:59.308Z,29.70
2022-08-03T15:42:29.612Z,29.73
2022-08-03T15:44:58.039Z,29.70
2022-08-03T15:47:26.245Z,29.78
2022-08-03T15:49:54.165Z,29.81
2022-08-03T15:52:23.473Z,29.86
2022-08-03T15:54:51.465Z,29.84
2022-08-03T15:57:19.499Z,29.76
2022-08-03T15:59:47.856Z,29.79
2022-08-03T16:02:16.183Z,29.81
2022-08-03T16:04:44.161Z,29.83
2022-08-03T16:07:12.595Z,29.77
2022-08-03T16:09:43.844Z,29.81
2022-08-03T16:12:15.894Z,29.91
2022-08-03T16:14:53.403Z,29.89
2022-08-03T16:17:23.590Z,29.88
2022-08-03T16:19:53.433Z,29.88
2022-08-03T16:22:23.726Z,29.89
2022-08-03T16:24:53.783Z,29.88
2022-08-03T16:27:58.201Z,29.83
2022-08-03T16:30:11.662Z,29.82
2022-08-03T16:32:39.934Z,29.75
2022-08-03T16:35:09.025Z,29.90
2022-08-03T16:37:56.286Z,29.81
2022-08-03T16:40:26.868Z,29.87
2022-08-03T16:42:54.847Z,29.79
2022-08-03T16:45:22.918Z,29.69
2022-08-03T16:48:01.745Z,29.71
2022-08-03T16:50:35.085Z,29.67
2022-08-03T16:53:06.367Z,29.68
2022-08-03T16:55:48.522Z,29.59
2022-08-03T16:58:34.811Z,29.55
2022-08-03T17:01:22.283Z,29.48
2022-08-03T17:04:01.869Z,29.49
2022-08-03T17:06:34.583Z,29.50
2022-08-03T17:09:03.589Z,29.49
2022-08-03T17:11:43.908Z,29.43
2022-08-03T17:14:13.661Z,29.37
2022-08-03T17:16:51.879Z,29.36
2022-08-03T17:19:23.636Z,29.31
2022-08-03T17:21:58.222Z,29.27
2022-08-03T17:24:32.158Z,29.21
2022-08-03T17:27:08.868Z,29.18
2022-08-03T17:29:45.280Z,29.20
2022-08-03T17:32:18.415Z,29.24
2022-08-03T17:34:49.886Z,29.18
2022-08-03T17:37:49.896Z,29.11
2022-08-03T17:40:11.767Z,29.02
2022-08-03T17:42:50.788Z,28.97
2022-08-03T17:45:19.200Z,28.92
2022-08-03T17:47:57.579Z,28.91
2022-08-03T17:50:35.575Z,28.90
2022-08-03T17:53:15.240Z,28.79
2022-08-03T17:56:36.159Z,28.78
2022-08-03T17:59:08.664Z,28.75
2022-08-03T18:02:12.224Z,28.69
2022-08-03T18:05:00.489Z,28.62
2022-08-03T18:07:41.200Z,28.54
2022-08-03T18:10:12.087Z,28.51
2022-08-03T18:12:51.895Z,28.45
2022-08-03T18:15:28.674Z,28.39
2022-08-03T18:18:02.649Z,28.38
2022-08-03T18:20:40.921Z,28.33
2022-08-03T18:23:11.838Z,28.30
2022-08-03T18:25:58.272Z,28.20
2022-08-03T18:28:27.907Z,28.15
2022-08-03T18:30:58.903Z,28.08
2022-08-03T18:34:16.748Z,28.05
2022-08-03T18:36:21.720Z,27.97
2022-08-03T18:38:53.956Z,27.93
2022-08-03T18:41:32.232Z,27.86
2022-08-03T18:44:07.845Z,27.78
2022-08-03T18:47:07.534Z,27.74
2022-08-03T18:49:53.904Z,27.60
2022-08-03T18:52:30.451Z,27.56
2022-08-03T18:58:05.302Z,27.37
2022-08-03T19:00:54.283Z,27.33
2022-08-03T19:03:43.021Z,27.25
2022-08-03T19:06:20.273Z,27.24
2022-08-03T19:08:51.324Z,27.20
2022-08-03T19:11:28.121Z,27.15
2022-08-03T19:13:59.453Z,27.03
2022-08-03T19:16:32.934Z,26.99
2022-08-03T19:19:04.060Z,26.92
2022-08-03T19:21:35.610Z,26.88
2022-08-03T19:24:09.750Z,26.81
2022-08-03T19:26:39.687Z,26.75
2022-08-03T19:29:15.071Z,26.67
2022-08-03T19:31:59.233Z,26.59
2022-08-03T19:34:32.685Z,26.47
2022-08-03T19:37:01.721Z,26.47
2022-08-03T19:39:31.705Z,26.47
2022-08-03T19:42:20.182Z,26.45
2022-08-03T19:44:54.836Z,26.35
2022-08-03T19:47:29.090Z,26.33
2022-08-03T19:50:05.778Z,26.27
2022-08-03T19:52:50.028Z,26.20
2022-08-03T19:55:19.049Z,26.16
2022-08-03T19:57:49.089Z,26.14
2022-08-03T20:00:26.405Z,26.08
2022-08-03T20:02:55.043Z,26.04
2022-08-03T20:05:25.171Z,25.99
2022-08-03T20:07:54.595Z,25.94
2022-08-03T20:10:24.277Z,25.94
2022-08-03T20:12:53.336Z,25.86
2022-08-03T20:15:22.387Z,25.83
2022-08-03T20:18:00.459Z,25.79
2022-08-03T20:20:32.160Z,25.78
2022-08-03T20:23:01.845Z,25.76
2022-08-03T20:25:37.886Z,25.67
2022-08-03T20:28:14.175Z,25.66
2022-08-03T20:30:44.429Z,25.57
2022-08-03T20:33:18.973Z,25.48
2022-08-03T20:35:50.165Z,25.40
2022-08-03T20:38:19.541Z,25.33
2022-08-03T20:40:48.645Z,25.32
2022-08-03T20:43:16.994Z,25.27
2022-08-03T20:46:00.810Z,25.18
2022-08-03T20:48:37.250Z,25.11
2022-08-03T20:51:11.097Z,25.03
2022-08-03T20:54:00.505Z,25.00
2022-08-03T20:56:33.560Z,24.96
2022-08-03T20:59:03.853Z,24.87
2022-08-03T21:01:36.433Z,24.80
2022-08-03T21:04:06.979Z,24.77
2022-08-03T21:06:42.916Z,24.68
2022-08-03T21:09:19.603Z,24.66
2022-08-03T21:11:51.189Z,24.62
2022-08-03T21:13:10.335Z,27.44
2022-08-03T21:14:24.118Z,24.54
2022-08-03T21:16:53.144Z,24.52
2022-08-03T21:19:23.100Z,24.45
2022-08-03T21:21:52.978Z,24.45
2022-08-03T21:24:24.625Z,24.39
2022-08-03T21:26:55.551Z,24.38
2022-08-03T21:29:24.284Z,24.33
2022-08-03T21:31:52.678Z,24.32
2022-08-03T21:34:21.744Z,24.34
2022-08-03T21:36:50.263Z,24.34
2022-08-03T21:39:19.751Z,24.33
2022-08-03T21:41:47.696Z,24.31
2022-08-03T21:44:18.442Z,24.25
2022-08-03T21:46:59.260Z,24.21
2022-08-03T21:50:07.263Z,24.19
2022-08-03T21:52:19.762Z,24.11
2022-08-03T21:54:50.802Z,24.10
2022-08-03T21:57:20.631Z,24.00
2022-08-03T21:59:54.198Z,23.93
2022-08-03T22:02:26.626Z,23.89
2022-08-03T22:04:56.350Z,23.87
2022-08-03T22:07:26.816Z,23.83
2022-08-03T22:09:57.475Z,23.78
2022-08-03T22:12:27.130Z,23.76
2022-08-03T22:15:01.231Z,23.70
2022-08-03T22:17:54.573Z,23.67
2022-08-03T22:20:20.058Z,23.63
2022-08-03T22:22:55.470Z,23.62
2022-08-03T22:25:29.815Z,23.52
2022-08-03T22:27:59.556Z,23.47
2022-08-03T22:30:28.026Z,23.41
2022-08-03T22:32:57.648Z,23.35
2022-08-03T22:35:27.221Z,23.33
2022-08-03T22:37:58.247Z,23.27
2022-08-03T22:40:28.028Z,23.24
2022-08-03T22:42:56.167Z,23.17
2022-08-03T22:46:06.430Z,23.15
2022-08-03T22:48:12.290Z,23.10
2022-08-03T22:50:40.682Z,23.06
2022-08-03T22:53:08.916Z,23.00
2022-08-03T22:55:38.436Z,22.94
2022-08-03T22:58:06.327Z,22.91
2022-08-03T23:00:34.416Z,22.85
2022-08-03T23:03:03.586Z,22.81
2022-08-03T23:06:00.839Z,22.78
2022-08-03T23:08:26.516Z,22.74
2022-08-03T23:11:01.412Z,22.72
2022-08-03T23:13:32.139Z,22.65
2022-08-03T23:16:01.818Z,22.60
2022-08-03T23:18:36.748Z,22.56
2022-08-03T23:21:11.270Z,22.49
2022-08-03T23:23:44.592Z,22.47
2022-08-03T23:26:14.795Z,22.47
2022-08-03T23:28:47.696Z,22.44
2022-08-03T23:31:16.355Z,22.41
2022-08-03T23:33:46.003Z,22.33
2022-08-03T23:36:30.888Z,22.29
2022-08-03T23:39:01.968Z,22.31
2022-08-03T23:41:31.955Z,22.25
2022-08-03T23:44:02.167Z,22.19
2022-08-03T23:46:32.162Z,22.16
2022-08-03T23:49:01.097Z,22.16
2022-08-03T23:51:39.913Z,22.12
2022-08-03T23:54:17.158Z,22.11
2022-08-03T23:56:55.439Z,22.08
2022-08-03T23:59:32.173Z,22.07
